Time;durP1;ratioP1;P1;durP2;ratioP2;P2;SDS_P1;SDS_P2;PMS_P1;PMS_P2;Temp;Humidity;BMP_temperature;BMP_pressure;BME280_temperature;BME280_humidity;BME280_pressure;Samples;Min_cycle;Max_cycle;Signal;HPM_P1;HPM_P2
2024/02/16 00:01:01;;;;;;;13.70;7.95;;;;;;;4.80;72.40;100029.13;5072758;28;20471;-71
2024/02/16 00:03:27;;;;;;;12.45;7.88;;;;;;;4.84;72.10;100035.78;5090957;28;20059;-71
2024/02/16 00:05:53;;;;;;;15.88;8.90;;;;;;;4.95;71.82;100039.34;5090784;28;20373;-71
2024/02/16 00:08:20;;;;;;;11.52;8.27;;;;;;;4.77;72.09;100033.31;5089884;28;20035;-71
2024/02/16 00:10:46;;;;;;;13.60;8.43;;;;;;;4.75;72.11;100027.19;5072920;28;20113;-71
2024/02/16 00:13:11;;;;;;;14.93;9.02;;;;;;;4.81;71.79;100030.78;5078948;28;20052;-71
2024/02/16 00:15:38;;;;;;;10.88;7.20;;;;;;;4.91;71.38;100038.25;5090856;28;20059;-71
2024/02/16 00:18:04;;;;;;;15.23;7.50;;;;;;;4.97;71.42;100036.28;5090705;28;20481;-71
2024/02/16 00:20:31;;;;;;;12.65;8.40;;;;;;;4.81;72.06;100035.50;5090274;28;20115;-71
2024/02/16 00:22:57;;;;;;;13.48;7.95;;;;;;;4.87;71.90;100040.75;5090614;28;20031;-71
2024/02/16 00:25:22;;;;;;;14.98;8.82;;;;;;;4.87;71.31;100046.31;5072663;28;20024;-71
2024/02/16 00:27:48;;;;;;;10.80;7.50;;;;;;;5.03;70.93;100041.53;5090607;28;20028;-71
2024/02/16 00:30:15;;;;;;;15.05;8.05;;;;;;;5.08;70.48;100039.84;5090424;28;20034;-71
2024/02/16 00:32:41;;;;;;;15.52;7.35;;;;;;;5.03;70.63;100040.69;5090403;28;20039;-71
2024/02/16 00:35:06;;;;;;;12.40;8.10;;;;;;;4.92;70.70;100035.19;5090716;28;20107;-71
2024/02/16 00:37:32;;;;;;;14.50;7.90;;;;;;;4.78;71.17;100026.66;5102574;28;20103;-71
2024/02/16 00:39:57;;;;;;;13.02;7.95;;;;;;;4.76;71.48;100045.50;5090195;28;20019;-71
2024/02/16 00:42:23;;;;;;;11.60;7.55;;;;;;;4.72;71.97;100030.53;5071899;28;20047;-71
2024/02/16 00:44:49;;;;;;;14.60;8.73;;;;;;;4.78;71.98;100037.75;5094585;28;20031;-71
2024/02/16 00:47:16;;;;;;;12.27;8.00;;;;;;;4.88;72.12;100041.56;5108093;28;20094;-71
2024/02/16 00:49:42;;;;;;;12.48;8.35;;;;;;;4.92;71.60;100045.47;5090175;28;20063;-71
2024/02/16 00:52:10;;;;;;;11.52;8.25;;;;;;;4.86;71.58;100033.56;5090068;28;20123;-70
2024/02/16 00:54:35;;;;;;;12.68;8.07;;;;;;;4.95;71.10;100031.03;5090144;28;20031;-71
2024/02/16 00:57:02;;;;;;;12.02;7.40;;;;;;;4.94;71.82;100034.06;5089714;28;20051;-71
2024/02/16 00:59:31;;;;;;;11.05;7.35;;;;;;;4.83;71.83;100036.06;5090109;28;20034;-71
2024/02/16 01:01:56;;;;;;;13.73;7.90;;;;;;;4.75;72.38;100029.97;5089925;28;20046;-71
2024/02/16 01:04:22;;;;;;;17.48;10.65;;;;;;;4.74;72.59;100030.28;5101709;28;20027;-71
2024/02/16 01:06:48;;;;;;;15.70;9.30;;;;;;;4.77;72.25;100033.31;5110304;28;20515;-71
2024/02/16 01:09:14;;;;;;;9.50;7.18;;;;;;;4.72;72.26;100027.78;5091142;28;20062;-71
2024/02/16 01:11:42;;;;;;;10.20;7.53;;;;;;;4.85;72.44;100026.34;5089925;28;20024;-71
2024/02/16 01:14:08;;;;;;;15.00;8.02;;;;;;;4.80;73.12;100029.13;5089814;28;20538;-71
2024/02/16 01:16:33;;;;;;;12.90;7.85;;;;;;;4.79;72.99;100035.78;5107787;28;20035;-71
2024/02/16 01:18:59;;;;;;;14.30;7.95;;;;;;;4.86;72.73;100021.63;5100368;28;20054;-71
2024/02/16 01:21:25;;;;;;;12.00;7.45;;;;;;;4.87;72.14;100029.66;5090407;28;20519;-71
2024/02/16 01:23:50;;;;;;;11.05;7.68;;;;;;;4.90;72.77;100033.81;5087927;28;20036;-71
2024/02/16 01:26:16;;;;;;;10.38;7.45;;;;;;;4.99;72.33;100032.09;5092200;28;20397;-71
2024/02/16 01:28:41;;;;;;;13.18;7.50;;;;;;;4.98;72.71;100037.94;5087774;28;20055;-71
2024/02/16 01:31:09;;;;;;;15.23;7.22;;;;;;;4.88;72.71;100033.25;5091081;28;20032;-71
2024/02/16 01:33:35;;;;;;;11.68;7.30;;;;;;;4.90;72.88;100033.81;5094102;28;20020;-70
2024/02/16 01:36:02;;;;;;;11.55;8.13;;;;;;;4.89;72.77;100032.16;5075480;28;20036;-70
2024/02/16 01:38:27;;;;;;;10.43;7.53;;;;;;;4.87;72.93;100024.13;5093727;28;20552;-71
2024/02/16 01:40:53;;;;;;;11.15;7.50;;;;;;;4.95;73.78;100035.72;5093627;28;20063;-71
2024/02/16 01:43:22;;;;;;;12.65;7.40;;;;;;;4.97;73.66;100030.75;5093565;28;20497;-71
2024/02/16 01:45:47;;;;;;;14.95;7.95;;;;;;;5.11;72.30;100034.56;5105933;28;20039;-71
2024/02/16 01:48:16;;;;;;;12.05;6.82;;;;;;;5.00;71.85;100028.22;5108211;28;20019;-71
2024/02/16 01:50:45;;;;;;;15.02;8.02;;;;;;;5.11;71.70;100033.72;5095639;28;20483;-70
2024/02/16 01:53:18;;;;;;;10.43;7.35;;;;;;;5.04;71.51;100039.56;5103225;28;20024;-71
2024/02/16 01:55:45;;;;;;;11.95;8.10;;;;;;;5.22;71.63;100023.41;5075095;28;20039;-71
2024/02/16 01:58:11;;;;;;;9.02;6.88;;;;;;;5.18;70.43;100025.94;5093322;28;20031;-70
2024/02/16 02:00:36;;;;;;;12.05;7.28;;;;;;;5.15;71.24;100029.28;5093538;28;20111;-71
2024/02/16 02:03:03;;;;;;;14.75;8.02;;;;;;;5.07;70.89;100025.16;5093842;28;20020;-71
2024/02/16 02:05:28;;;;;;;13.68;7.28;;;;;;;5.08;71.77;100037.91;5093561;28;20086;-71
2024/02/16 02:07:54;;;;;;;13.10;7.32;;;;;;;5.12;70.99;100030.66;5093270;28;20421;-71
2024/02/16 02:10:19;;;;;;;12.10;7.90;;;;;;;5.02;71.34;100030.72;5094413;28;20047;-71
2024/02/16 02:12:45;;;;;;;12.55;7.85;;;;;;;5.01;70.85;100029.06;5093393;28;20032;-71
2024/02/16 02:15:11;;;;;;;13.45;7.32;;;;;;;5.24;70.15;100026.72;5074853;28;20412;-71
2024/02/16 02:17:37;;;;;;;11.20;7.53;;;;;;;5.18;69.27;100028.69;5093202;28;20038;-71
2024/02/16 02:20:06;;;;;;;10.10;6.80;;;;;;;5.15;69.99;100024.53;5074800;28;20028;-71
2024/02/16 02:22:32;;;;;;;11.07;7.43;;;;;;;5.12;70.08;100036.22;5102532;28;20164;-71
2024/02/16 02:24:58;;;;;;;12.45;8.00;;;;;;;5.11;69.98;100020.69;5111505;28;20031;-70
2024/02/16 02:27:23;;;;;;;12.82;6.95;;;;;;;5.14;70.17;100022.09;5112819;28;20038;-71
2024/02/16 02:29:49;;;;;;;9.75;7.00;;;;;;;5.17;69.72;100029.81;5113376;28;20023;-71
2024/02/16 02:32:15;;;;;;;10.52;6.32;;;;;;;5.25;68.95;100025.63;5090024;28;20492;-71
2024/02/16 02:34:40;;;;;;;10.10;6.82;;;;;;;5.20;68.57;100018.16;5092914;28;20031;-71
2024/02/16 02:37:06;;;;;;;15.00;7.72;;;;;;;5.11;69.72;100006.00;5102785;28;20028;-71
2024/02/16 02:39:32;;;;;;;9.98;6.88;;;;;;;5.23;68.41;100022.31;5094374;28;20028;-71
2024/02/16 02:41:58;;;;;;;13.35;7.43;;;;;;;5.30;68.64;100031.13;5112879;28;20032;-71
2024/02/16 02:44:24;;;;;;;13.02;6.88;;;;;;;5.26;69.36;100032.81;5113193;28;20049;-71
2024/02/16 02:46:50;;;;;;;11.45;7.63;;;;;;;5.26;68.32;100028.13;5112313;28;20043;-71
2024/02/16 02:49:15;;;;;;;11.27;7.40;;;;;;;5.07;69.40;100027.94;5094234;28;20019;-70
2024/02/16 02:51:41;;;;;;;13.70;7.78;;;;;;;5.02;69.38;100023.25;5092473;28;20032;-70
2024/02/16 02:54:06;;;;;;;15.77;9.63;;;;;;;4.94;69.93;100031.28;5093645;28;20028;-71
2024/02/16 02:56:32;;;;;;;14.00;8.77;;;;;;;5.02;69.30;100033.50;5112818;28;20050;-71
2024/02/16 02:58:57;;;;;;;11.45;7.15;;;;;;;4.82;70.40;100029.66;5094593;28;20096;-71
2024/02/16 03:01:23;;;;;;;11.65;7.68;;;;;;;4.62;70.57;100027.81;5112891;28;20023;-71
2024/02/16 03:03:49;;;;;;;11.73;7.28;;;;;;;4.46;71.68;100035.31;5111595;28;20047;-71
2024/02/16 03:06:19;;;;;;;13.27;7.03;;;;;;;4.57;72.11;100031.41;5093503;28;20028;-71
2024/02/16 03:08:45;;;;;;;14.02;8.27;;;;;;;4.42;73.35;100031.47;5097503;28;20028;-71
2024/02/16 03:11:10;;;;;;;13.15;7.80;;;;;;;4.49;73.08;100040.31;5112648;28;20035;-70
2024/02/16 03:13:36;;;;;;;12.88;8.25;;;;;;;4.45;73.51;100041.97;5112411;28;20027;-71
2024/02/16 03:16:01;;;;;;;17.58;8.38;;;;;;;4.43;73.78;100030.34;5094233;28;20138;-70
2024/02/16 03:18:31;;;;;;;12.15;7.50;;;;;;;4.41;74.23;100038.09;5094143;28;20059;-71
2024/02/16 03:20:57;;;;;;;15.15;8.93;;;;;;;4.27;74.92;100038.69;5112554;28;20049;-71
2024/02/16 03:23:23;;;;;;;16.63;7.60;;;;;;;3.90;76.82;100040.63;5112509;28;20038;-68
2024/02/16 03:25:48;;;;;;;14.77;8.65;;;;;;;3.93;77.08;100045.63;5100564;28;20028;-69
2024/02/16 03:28:15;;;;;;;18.83;10.82;;;;;;;3.80;77.56;100046.16;5090505;28;20475;-69
2024/02/16 03:30:41;;;;;;;19.52;11.75;;;;;;;3.61;78.75;100043.09;5112112;28;20123;-69
2024/02/16 03:33:07;;;;;;;17.05;11.18;;;;;;;3.52;79.62;100045.56;5092067;28;20027;-69
2024/02/16 03:35:33;;;;;;;16.83;11.50;;;;;;;3.52;79.63;100051.09;5111994;28;20024;-68
2024/02/16 03:37:58;;;;;;;14.55;10.07;;;;;;;3.42;80.01;100045.53;5108537;28;20479;-69
2024/02/16 03:40:25;;;;;;;15.55;9.45;;;;;;;3.40;80.55;100051.38;5110427;28;20031;-69
2024/02/16 03:42:51;;;;;;;15.50;8.90;;;;;;;3.37;80.57;100052.75;5105262;28;20714;-68
2024/02/16 03:45:17;;;;;;;12.90;7.95;;;;;;;3.21;81.26;100062.91;5092966;28;20015;-68
2024/02/16 03:47:42;;;;;;;17.02;8.70;;;;;;;2.98;82.33;100046.78;5110046;28;20119;-68
2024/02/16 03:50:08;;;;;;;19.30;8.90;;;;;;;3.14;82.03;100056.81;5109469;28;20164;-68
2024/02/16 03:52:34;;;;;;;15.52;8.68;;;;;;;3.14;81.68;100054.06;5093656;28;20012;-68
2024/02/16 03:54:59;;;;;;;15.98;9.20;;;;;;;3.05;81.44;100063.97;5111019;28;20099;-68
2024/02/16 03:57:26;;;;;;;14.48;8.82;;;;;;;3.09;81.57;100054.03;5111392;28;20047;-68
2024/02/16 03:59:51;;;;;;;14.48;8.85;;;;;;;3.01;81.34;100062.81;5105811;28;20032;-69
2024/02/16 04:02:18;;;;;;;13.35;8.18;;;;;;;2.93;81.81;100064.19;5073049;28;20020;-69
2024/02/16 04:04:44;;;;;;;15.40;9.70;;;;;;;2.86;82.03;100064.44;5090899;28;20016;-68
2024/02/16 04:07:09;;;;;;;17.92;8.93;;;;;;;2.91;82.08;100071.91;5091251;28;20016;-69
2024/02/16 04:09:35;;;;;;;23.73;9.85;;;;;;;2.82;81.85;100063.31;5090978;28;20505;-68
2024/02/16 04:12:01;;;;;;;20.58;14.02;;;;;;;2.94;81.81;100063.91;5090871;28;20030;-68
2024/02/16 04:14:27;;;;;;;16.77;11.18;;;;;;;2.98;81.58;100063.38;5072534;28;20085;-69
2024/02/16 04:16:52;;;;;;;22.27;11.30;;;;;;;3.09;81.21;100068.69;5090846;28;20024;-69
2024/02/16 04:19:17;;;;;;;23.00;13.95;;;;;;;3.12;81.09;100070.06;5090616;28;20032;-68
2024/02/16 04:21:43;;;;;;;25.45;15.57;;;;;;;3.07;80.71;100067.28;5090806;28;20016;-69
2024/02/16 04:24:08;;;;;;;23.70;15.40;;;;;;;2.99;81.78;100059.50;5090556;28;20533;-68
2024/02/16 04:26:34;;;;;;;20.98;14.13;;;;;;;3.21;80.89;100068.44;5090672;28;20475;-68
2024/02/16 04:28:59;;;;;;;20.80;11.82;;;;;;;3.13;80.92;100070.91;5090489;28;20045;-69
2024/02/16 04:31:25;;;;;;;21.83;11.20;;;;;;;3.01;81.22;100060.91;5072401;28;20504;-69
2024/02/16 04:33:51;;;;;;;20.40;11.18;;;;;;;3.15;80.48;100065.94;5090342;28;20575;-68
2024/02/16 04:36:16;;;;;;;15.68;11.00;;;;;;;3.23;80.05;100076.47;5072320;28;20046;-69
2024/02/16 04:38:42;;;;;;;19.45;12.18;;;;;;;3.12;80.43;100078.34;5072219;28;20482;-69
2024/02/16 04:41:08;;;;;;;20.30;11.48;;;;;;;3.20;80.25;100069.56;5090245;28;20024;-68
2024/02/16 04:43:34;;;;;;;23.63;11.98;;;;;;;3.21;80.12;100073.16;5090559;28;20133;-71
2024/02/16 04:46:00;;;;;;;30.15;15.23;;;;;;;3.16;80.46;100078.66;5097327;28;20494;-71
2024/02/16 04:48:26;;;;;;;37.50;18.25;;;;;;;2.81;81.55;100068.00;5109313;28;20568;-71
2024/02/16 04:50:51;;;;;;;52.22;25.15;;;;;;;2.87;81.48;100065.28;5090311;28;20048;-71
2024/02/16 04:53:17;;;;;;;75.53;32.53;;;;;;;2.77;81.93;100071.56;5090153;28;20032;-71
2024/02/16 04:55:42;;;;;;;64.40;27.13;;;;;;;2.67;82.77;100070.44;5090180;28;20148;-70
2024/02/16 04:58:11;;;;;;;64.38;27.05;;;;;;;2.80;82.42;100073.81;5089931;28;20048;-70
2024/02/16 05:00:38;;;;;;;68.93;28.08;;;;;;;2.76;82.12;100084.56;5089780;28;20135;-71
2024/02/16 05:03:04;;;;;;;72.30;28.60;;;;;;;2.85;82.06;100071.06;5076704;28;20028;-71
2024/02/16 05:05:30;;;;;;;45.55;21.63;;;;;;;2.73;81.70;100068.53;5107089;28;20503;-71
2024/02/16 05:07:56;;;;;;;40.45;20.92;;;;;;;2.54;82.86;100070.91;5110377;28;20030;-71
2024/02/16 05:10:21;;;;;;;47.47;22.13;;;;;;;2.57;83.50;100075.88;5110141;28;20023;-71
2024/02/16 05:12:46;;;;;;;39.95;21.10;;;;;;;2.72;83.19;100074.31;5103307;28;20020;-71
2024/02/16 05:15:15;;;;;;;41.72;20.42;;;;;;;2.74;82.78;100074.88;5089838;28;20052;-71
2024/02/16 05:17:41;;;;;;;40.03;21.67;;;;;;;2.71;82.99;100073.47;5071938;28;20028;-71
2024/02/16 05:20:14;;;;;;;40.55;21.10;;;;;;;2.62;82.92;100073.13;5089773;28;20047;-71
2024/02/16 05:22:46;;;;;;;30.65;17.67;;;;;;;2.55;83.35;100075.31;5103579;28;20446;-71
2024/02/16 05:25:13;;;;;;;38.15;19.88;;;;;;;2.59;83.33;100086.66;5091891;28;20035;-71
2024/02/16 05:27:39;;;;;;;41.65;19.65;;;;;;;2.57;83.74;100086.94;5092309;28;20019;-71
2024/02/16 05:30:07;;;;;;;46.13;21.95;;;;;;;2.49;83.76;100079.97;5091973;28;20081;-71
2024/02/16 05:32:37;;;;;;;46.65;22.13;;;;;;;2.43;83.92;100092.06;5090110;28;20027;-71
2024/02/16 05:35:16;;;;;;;40.45;19.92;;;;;;;2.41;83.86;100099.81;5080182;28;20435;-71
2024/02/16 05:37:51;;;;;;;47.95;19.85;;;;;;;2.32;84.82;100091.19;5089838;28;20024;-71
2024/02/16 05:40:24;;;;;;;50.80;25.55;;;;;;;2.38;84.60;100100.34;5089674;28;20542;-71
2024/02/16 05:42:51;;;;;;;65.43;25.00;;;;;;;2.29;84.44;100108.25;5096428;28;20031;-71
2024/02/16 05:45:17;;;;;;;48.03;21.58;;;;;;;2.14;86.03;100105.38;5090535;28;20126;-71
2024/02/16 05:47:45;;;;;;;61.15;25.83;;;;;;;1.93;87.18;100114.31;5103309;28;20118;-71
2024/02/16 05:50:12;;;;;;;43.85;19.63;;;;;;;1.98;87.05;100102.50;5109918;28;20460;-71
2024/02/16 05:52:38;;;;;;;36.33;17.75;;;;;;;2.10;86.98;100111.44;5095549;28;20058;-73
2024/02/16 05:55:05;;;;;;;45.88;20.75;;;;;;;2.24;86.50;100113.75;5089435;28;20099;-73
2024/02/16 05:57:31;;;;;;;43.20;21.90;;;;;;;2.32;85.50;100106.91;5089457;28;20047;-73
2024/02/16 05:59:56;;;;;;;65.57;24.85;;;;;;;2.21;85.92;100117.03;5109823;28;20031;-73
2024/02/16 06:02:25;;;;;;;65.53;26.77;;;;;;;2.17;86.27;100126.94;5091204;28;20023;-70
2024/02/16 06:04:51;;;;;;;46.70;22.20;;;;;;;2.26;85.91;100119.84;5108522;28;20024;-72
2024/02/16 06:07:17;;;;;;;71.82;26.73;;;;;;;2.41;85.93;100116.38;5102528;28;20017;-73
2024/02/16 06:09:42;;;;;;;78.35;29.08;;;;;;;2.62;84.58;100122.84;5089379;28;20032;-70
2024/02/16 06:12:09;;;;;;;83.00;26.33;;;;;;;2.49;84.24;100126.94;5089402;28;20047;-73
2024/02/16 06:14:36;;;;;;;53.40;22.80;;;;;;;2.46;85.02;100121.91;5071139;28;20024;-71
2024/02/16 06:17:02;;;;;;;56.70;26.55;;;;;;;2.52;84.44;100120.88;5090623;28;20107;-71
2024/02/16 06:19:28;;;;;;;70.43;30.45;;;;;;;2.45;84.76;100128.53;5092768;28;20420;-72
2024/02/16 06:21:54;;;;;;;68.38;25.55;;;;;;;2.55;84.13;100129.72;5093195;28;20020;-71
2024/02/16 06:24:21;;;;;;;45.00;21.77;;;;;;;2.51;84.81;100133.00;5075772;28;20114;-75
2024/02/16 06:26:46;;;;;;;42.72;21.60;;;;;;;2.44;85.53;100123.31;5093706;28;20028;-74
2024/02/16 06:29:12;;;;;;;48.55;19.15;;;;;;;2.58;85.04;100131.94;5094462;28;20509;-72
2024/02/16 06:31:37;;;;;;;54.35;18.25;;;;;;;2.54;84.92;100123.38;5093728;28;20085;-73
2024/02/16 06:34:03;;;;;;;43.33;18.67;;;;;;;2.40;85.88;100120.22;5106009;28;20476;-70
2024/02/16 06:36:28;;;;;;;49.75;20.58;;;;;;;2.37;85.91;100129.88;5099913;28;20512;-71
2024/02/16 06:38:54;;;;;;;44.28;20.48;;;;;;;2.33;86.81;100120.44;5075259;28;20464;-70
2024/02/16 06:41:19;;;;;;;40.85;19.25;;;;;;;2.44;86.67;100113.06;5098957;28;20016;-71
2024/02/16 06:43:45;;;;;;;40.67;21.00;;;;;;;2.50;87.80;100123.06;5099899;28;20027;-75
2024/02/16 06:46:10;;;;;;;40.88;18.90;;;;;;;2.63;87.93;100124.53;5099136;28;20036;-72
2024/02/16 06:48:35;;;;;;;30.52;17.73;;;;;;;2.79;87.72;100136.50;5104831;28;20020;-72
2024/02/16 06:51:01;;;;;;;35.03;16.50;;;;;;;2.98;87.22;100132.47;5104918;28;20028;-71
2024/02/16 06:53:26;;;;;;;32.95;18.80;;;;;;;3.20;85.73;100133.13;5089246;28;20028;-72
2024/02/16 06:55:52;;;;;;;39.70;17.98;;;;;;;3.41;84.74;100137.91;5092200;28;20023;-72
2024/02/16 06:58:17;;;;;;;51.08;20.70;;;;;;;3.73;83.86;100134.16;5112634;28;20027;-73
2024/02/16 07:00:43;;;;;;;46.78;21.75;;;;;;;3.90;82.63;100133.91;5108830;28;20419;-73
2024/02/16 07:03:08;;;;;;;53.55;21.90;;;;;;;4.19;81.36;100130.63;5110153;28;20415;-74
2024/02/16 07:05:35;;;;;;;51.65;21.50;;;;;;;4.40;81.39;100136.16;5093472;28;20016;-76
2024/02/16 07:08:00;;;;;;;73.13;21.70;;;;;;;4.26;80.88;100133.13;5086873;28;20028;-82
2024/02/16 07:10:26;;;;;;;50.25;21.13;;;;;;;4.37;80.47;100128.44;5108441;28;20020;-73
2024/02/16 07:12:51;;;;;;;67.18;25.65;;;;;;;4.45;80.69;100131.47;5107126;28;20438;-72
2024/02/16 07:15:17;;;;;;;79.68;30.73;;;;;;;4.65;80.38;100127.03;5111564;28;20080;-72
2024/02/16 07:17:42;;;;;;;82.75;29.90;;;;;;;4.94;79.11;100139.41;5104835;28;20050;-72
2024/02/16 07:20:08;;;;;;;62.35;26.77;;;;;;;5.06;78.44;100126.91;5110078;28;20476;-71
2024/02/16 07:22:33;;;;;;;54.38;24.63;;;;;;;5.46;76.85;100129.81;5098805;28;20452;-75
2024/02/16 07:25:06;;;;;;;48.70;20.38;;;;;;;5.62;75.09;100132.53;5104246;28;20035;-72
2024/02/16 07:27:31;;;;;;;46.20;18.55;;;;;;;5.90;74.49;100138.47;5091805;28;20027;-78
2024/02/16 07:29:57;;;;;;;31.25;13.82;;;;;;;5.96;73.00;100129.00;5097295;28;20043;-74
2024/02/16 07:32:22;;;;;;;19.65;11.77;;;;;;;6.22;72.17;100131.63;5100290;28;20038;-72
2024/02/16 07:34:48;;;;;;;23.05;11.68;;;;;;;6.39;70.76;100141.47;5095554;28;20045;-73
2024/02/16 07:37:16;;;;;;;22.95;11.90;;;;;;;6.60;69.63;100131.84;5095242;28;20028;-73
2024/02/16 07:39:41;;;;;;;30.55;14.90;;;;;;;6.46;70.79;100140.03;5092778;28;20035;-72
2024/02/16 07:42:09;;;;;;;19.45;11.05;;;;;;;6.51;70.20;100141.13;5097643;28;20024;-72
2024/02/16 07:44:37;;;;;;;18.88;11.00;;;;;;;6.73;70.29;100143.41;5100693;28;20029;-73
2024/02/16 07:47:03;;;;;;;21.60;10.77;;;;;;;6.80;68.67;100138.34;5101075;28;20088;-73
2024/02/16 07:49:29;;;;;;;19.45;10.85;;;;;;;6.78;68.27;100142.53;5076191;28;20548;-72
2024/02/16 07:51:55;;;;;;;20.80;10.57;;;;;;;6.66;68.88;100138.19;5094877;28;20455;-72
2024/02/16 07:54:21;;;;;;;24.48;10.48;;;;;;;6.90;68.83;100128.25;5097996;28;20032;-73
2024/02/16 07:56:46;;;;;;;17.63;10.27;;;;;;;7.13;67.64;100126.59;5069086;28;20432;-73
2024/02/16 07:59:12;;;;;;;15.57;9.80;;;;;;;7.40;66.83;100133.50;5073339;28;20028;-73
2024/02/16 08:01:38;;;;;;;27.25;10.75;;;;;;;7.55;66.68;100129.69;5074836;28;20032;-73
2024/02/16 08:04:04;;;;;;;28.77;10.40;;;;;;;7.32;66.66;100128.59;5072421;28;20039;-72
2024/02/16 08:06:29;;;;;;;30.45;11.75;;;;;;;7.33;68.24;100139.44;5073480;28;20432;-71
2024/02/16 08:08:55;;;;;;;19.70;9.38;;;;;;;7.41;64.98;100132.38;5072764;28;20024;-73
2024/02/16 08:11:20;;;;;;;20.23;9.20;;;;;;;7.45;64.40;100119.53;5075847;28;20027;-73
2024/02/16 08:13:46;;;;;;;34.35;10.10;;;;;;;7.50;64.46;100127.00;5072347;28;20039;-71
2024/02/16 08:16:11;;;;;;;15.45;9.20;;;;;;;7.72;64.11;100126.41;5082646;28;20512;-71
2024/02/16 08:18:37;;;;;;;19.35;8.73;;;;;;;7.94;62.01;100117.44;5078128;28;20090;-71
2024/02/16 08:21:03;;;;;;;23.08;9.20;;;;;;;7.89;63.58;100120.31;5077117;28;20477;-71
2024/02/16 08:23:28;;;;;;;17.65;9.40;;;;;;;8.43;63.23;100125.59;5075274;28;20541;-71
2024/02/16 08:25:53;;;;;;;16.52;8.55;;;;;;;8.36;61.11;100116.81;5074358;28;20888;-70
2024/02/16 08:28:19;;;;;;;15.05;8.65;;;;;;;8.23;62.91;100116.47;5071887;28;20162;-70
2024/02/16 08:30:45;;;;;;;23.42;10.05;;;;;;;8.49;63.17;100121.59;5079554;28;20077;-71
2024/02/16 08:33:12;;;;;;;23.10;8.50;;;;;;;8.71;62.45;100120.97;5076542;28;20024;-71
2024/02/16 08:35:38;;;;;;;17.60;8.30;;;;;;;8.73;61.38;100128.19;5070566;28;20050;-71
2024/02/16 08:38:03;;;;;;;11.73;7.53;;;;;;;8.65;61.11;100124.16;5075915;28;20479;-70
2024/02/16 08:40:29;;;;;;;21.33;8.93;;;;;;;8.87;61.73;100122.66;5077567;28;20032;-71
2024/02/16 08:42:54;;;;;;;19.23;8.90;;;;;;;8.70;61.41;100110.13;5080474;28;20032;-71
2024/02/16 08:45:20;;;;;;;18.52;9.05;;;;;;;8.52;62.39;100112.66;5079069;28;20046;-71
2024/02/16 08:47:45;;;;;;;12.60;7.97;;;;;;;8.73;61.63;100129.03;5076260;28;20067;-71
2024/02/16 08:50:11;;;;;;;8.57;6.45;;;;;;;8.69;60.88;100119.63;5072748;28;20028;-71
2024/02/16 08:52:37;;;;;;;7.30;5.75;;;;;;;8.87;58.79;100133.81;5079006;28;20042;-71
2024/02/16 08:55:03;;;;;;;13.00;5.75;;;;;;;8.81;58.94;100119.97;5077378;28;20032;-72
2024/02/16 08:57:28;;;;;;;9.15;5.60;;;;;;;9.07;57.58;100119.47;5090777;28;20122;-72
2024/02/16 08:59:56;;;;;;;14.65;6.75;;;;;;;9.24;57.69;100129.19;5095383;28;20058;-72
2024/02/16 09:02:22;;;;;;;19.95;8.00;;;;;;;9.43;57.16;100131.06;5093170;28;20051;-72
2024/02/16 09:04:47;;;;;;;8.60;5.80;;;;;;;9.30;56.24;100133.56;5080500;28;20027;-72
2024/02/16 09:07:13;;;;;;;8.77;5.72;;;;;;;9.80;57.08;100132.75;5097509;28;20034;-72
2024/02/16 09:09:38;;;;;;;8.25;5.60;;;;;;;10.32;55.49;100133.53;5083361;28;20093;-73
2024/02/16 09:12:04;;;;;;;8.18;6.07;;;;;;;10.56;55.13;100126.81;5097180;28;20019;-73
2024/02/16 09:14:29;;;;;;;8.10;5.72;;;;;;;10.74;53.61;100136.16;5103896;28;20240;-71
2024/02/16 09:16:55;;;;;;;11.55;7.13;;;;;;;10.77;53.66;100136.34;5075079;28;20353;-72
2024/02/16 09:19:21;;;;;;;8.18;6.18;;;;;;;10.82;52.60;100127.81;5090863;28;20477;-70
2024/02/16 09:21:46;;;;;;;13.07;6.00;;;;;;;11.16;53.05;100130.28;5110696;28;20441;-71
2024/02/16 09:24:17;;;;;;;7.97;6.38;;;;;;;11.18;53.16;100116.78;5091109;28;20035;-77
2024/02/16 09:26:43;;;;;;;8.95;6.30;;;;;;;11.14;53.05;100130.59;5104307;28;20110;-77
2024/02/16 09:29:08;;;;;;;9.18;5.35;;;;;;;11.22;52.15;100121.41;5096636;28;20548;-76
2024/02/16 09:31:34;;;;;;;10.02;5.43;;;;;;;11.07;52.36;100122.66;5101140;28;20024;-73
2024/02/16 09:33:59;;;;;;;52.38;8.88;;;;;;;11.33;52.16;100118.31;5087683;28;20152;-74
2024/02/16 09:36:24;;;;;;;14.50;5.80;;;;;;;11.78;50.82;100115.31;5110630;28;20027;-73
2024/02/16 09:38:50;;;;;;;10.05;5.60;;;;;;;11.65;51.07;100107.88;5091371;28;20408;-73
2024/02/16 09:41:16;;;;;;;11.15;5.43;;;;;;;11.32;49.97;100116.66;5102715;28;20031;-73
2024/02/16 09:43:41;;;;;;;12.88;5.22;;;;;;;11.35;49.78;100105.66;5098526;28;20578;-70
2024/02/16 09:46:08;;;;;;;10.00;6.70;;;;;;;11.60;50.57;100108.84;5090496;28;20024;-72
2024/02/16 09:48:35;;;;;;;14.85;6.57;;;;;;;11.88;50.45;100104.91;5104648;28;20110;-71
2024/02/16 09:51:01;;;;;;;36.75;21.25;;;;;;;12.40;49.98;100095.69;5086749;28;20073;-77
2024/02/16 09:53:28;;;;;;;13.13;7.50;;;;;;;12.64;48.01;100097.13;5107923;28;20058;-73
2024/02/16 09:55:54;;;;;;;5.70;4.90;;;;;;;12.52;45.37;100094.19;5113588;28;20030;-78
2024/02/16 09:58:20;;;;;;;8.15;4.20;;;;;;;11.94;46.33;100096.03;5094609;28;20024;-74
2024/02/16 10:00:54;;;;;;;10.18;4.90;;;;;;;12.21;47.62;100091.28;5108625;28;20093;-73
2024/02/16 10:03:32;;;;;;;9.68;6.00;;;;;;;12.35;47.54;100084.66;5091266;28;20027;-75
2024/02/16 10:06:09;;;;;;;17.95;8.80;;;;;;;12.57;47.45;100085.63;5110057;28;20035;-75
2024/02/16 10:08:35;;;;;;;11.82;6.68;;;;;;;12.95;44.18;100084.84;5099713;28;20569;-83
2024/02/16 10:11:04;;;;;;;35.25;15.00;;;;;;;13.38;44.72;100079.31;5099912;28;20062;-77
2024/02/16 10:13:31;;;;;;;9.15;7.60;;;;;;;13.51;44.13;100072.66;5104710;28;20496;-71
2024/02/16 10:16:12;;;;;;;14.70;8.90;;;;;;;13.48;43.74;100070.53;5113472;28;20077;-75
2024/02/16 10:18:38;;;;;;;5.32;4.55;;;;;;;13.28;43.15;100069.31;5093711;28;20035;-75
2024/02/16 10:21:04;;;;;;;6.13;3.70;;;;;;;12.79;43.03;100067.72;5092120;28;20024;-77
2024/02/16 10:23:30;;;;;;;11.70;5.47;;;;;;;13.00;44.04;100055.75;5101141;28;20031;-76
2024/02/16 10:25:55;;;;;;;8.52;4.68;;;;;;;12.90;42.95;100059.72;5112222;28;20042;-74
2024/02/16 10:28:27;;;;;;;17.58;7.07;;;;;;;13.40;44.95;100052.53;5090104;28;20036;-72
2024/02/16 10:30:59;;;;;;;9.52;7.90;;;;;;;14.01;41.87;100062.56;5101225;28;20049;-81
2024/02/16 10:33:25;;;;;;;8.18;5.07;;;;;;;14.04;42.33;100053.41;5109333;28;20404;-74
2024/02/16 10:35:52;;;;;;;7.20;4.00;;;;;;;13.80;43.91;100056.09;5111493;28;20046;-72
2024/02/16 10:38:20;;;;;;;6.70;4.78;;;;;;;13.43;43.59;100048.25;5108369;28;20035;-73
2024/02/16 10:40:48;;;;;;;9.10;4.20;;;;;;;13.10;44.33;100041.34;5110184;28;20089;-73
2024/02/16 10:43:13;;;;;;;5.85;4.38;;;;;;;13.08;44.70;100043.63;5080848;28;20028;-75
2024/02/16 10:45:39;;;;;;;8.27;4.78;;;;;;;13.84;45.34;100040.22;5104195;28;20092;-73
2024/02/16 10:48:07;;;;;;;4.72;3.40;;;;;;;14.07;44.44;100029.41;5109947;28;20077;-75
2024/02/16 10:50:35;;;;;;;4.38;3.55;;;;;;;13.52;42.78;100034.16;5108268;28;20023;-74
2024/02/16 10:53:08;;;;;;;4.70;3.53;;;;;;;13.54;43.92;100027.03;5108782;28;20032;-74
2024/02/16 10:55:34;;;;;;;6.28;4.57;;;;;;;13.33;44.18;100027.81;5088277;28;20023;-80
2024/02/16 10:58:00;;;;;;;6.00;4.30;;;;;;;13.32;43.68;100028.13;5100778;28;20164;-76
2024/02/16 11:00:26;;;;;;;5.68;4.45;;;;;;;13.53;43.69;100028.22;5107832;28;20119;-72
2024/02/16 11:02:56;;;;;;;4.18;3.78;;;;;;;13.48;43.13;100034.00;5108543;28;20415;-73
2024/02/16 11:05:35;;;;;;;7.68;4.55;;;;;;;13.24;43.30;100027.03;5109477;28;20059;-75
2024/02/16 11:08:04;;;;;;;4.40;3.55;;;;;;;13.44;44.04;100027.44;5082224;28;20042;-74
2024/02/16 11:10:30;;;;;;;6.35;5.13;;;;;;;13.84;41.61;100017.72;5092004;28;20491;-74
2024/02/16 11:13:02;;;;;;;5.10;3.67;;;;;;;13.98;42.32;100031.47;5104939;28;20086;-74
2024/02/16 11:15:30;;;;;;;6.13;4.38;;;;;;;13.90;42.99;100019.97;5095855;28;20035;-75
2024/02/16 11:18:01;;;;;;;7.22;3.85;;;;;;;14.15;42.47;100006.00;5112745;28;20511;-75